sensor_id;sensor_type;location;lat;lon;timestamp;P1;durP1;ratioP1;P2;durP2;ratioP2
44512;SDS011;30219;50.588;9.504;2022-12-17T00:00:18;25.80;;;12.85;;
44512;SDS011;30219;50.588;9.504;2022-12-17T00:03:02;25.05;;;11.30;;
44512;SDS011;30219;50.588;9.504;2022-12-17T00:05:46;28.50;;;13.07;;
44512;SDS011;30219;50.588;9.504;2022-12-17T00:08:30;25.40;;;12.68;;
44512;SDS011;30219;50.588;9.504;2022-12-17T00:11:15;20.58;;;10.90;;
44512;SDS011;30219;50.588;9.504;2022-12-17T00:13:59;23.80;;;10.63;;
44512;SDS011;30219;50.588;9.504;2022-12-17T00:16:43;23.38;;;10.18;;
44512;SDS011;30219;50.588;9.504;2022-12-17T00:19:27;19.75;;;10.68;;
44512;SDS011;30219;50.588;9.504;2022-12-17T00:22:11;24.13;;;11.02;;
44512;SDS011;30219;50.588;9.504;2022-12-17T00:24:55;21.23;;;10.52;;
44512;SDS011;30219;50.588;9.504;2022-12-17T00:27:39;25.08;;;11.07;;
44512;SDS011;30219;50.588;9.504;2022-12-17T00:30:23;21.27;;;10.73;;
44512;SDS011;30219;50.588;9.504;2022-12-17T00:33:07;24.50;;;10.65;;
44512;SDS011;30219;50.588;9.504;2022-12-17T00:35:51;20.17;;;9.65;;
44512;SDS011;30219;50.588;9.504;2022-12-17T00:38:36;22.67;;;9.93;;
44512;SDS011;30219;50.588;9.504;2022-12-17T00:41:20;17.38;;;9.63;;
44512;SDS011;30219;50.588;9.504;2022-12-17T00:44:04;18.15;;;9.95;;
44512;SDS011;30219;50.588;9.504;2022-12-17T00:46:48;17.25;;;9.25;;
44512;SDS011;30219;50.588;9.504;2022-12-17T00:49:32;19.15;;;9.90;;
44512;SDS011;30219;50.588;9.504;2022-12-17T00:52:16;19.10;;;9.63;;
44512;SDS011;30219;50.588;9.504;2022-12-17T00:55:02;17.35;;;8.48;;
44512;SDS011;30219;50.588;9.504;2022-12-17T00:57:51;20.95;;;9.25;;
44512;SDS011;30219;50.588;9.504;2022-12-17T01:00:39;16.35;;;8.95;;
44512;SDS011;30219;50.588;9.504;2022-12-17T01:03:24;17.15;;;8.85;;
44512;SDS011;30219;50.588;9.504;2022-12-17T01:06:09;16.55;;;8.35;;
44512;SDS011;30219;50.588;9.504;2022-12-17T01:08:54;14.05;;;7.72;;
44512;SDS011;30219;50.588;9.504;2022-12-17T01:11:38;16.48;;;8.77;;
44512;SDS011;30219;50.588;9.504;2022-12-17T01:14:22;15.75;;;7.82;;
44512;SDS011;30219;50.588;9.504;2022-12-17T01:17:07;17.60;;;8.60;;
44512;SDS011;30219;50.588;9.504;2022-12-17T01:19:51;18.90;;;7.65;;
44512;SDS011;30219;50.588;9.504;2022-12-17T01:22:35;13.93;;;7.03;;
44512;SDS011;30219;50.588;9.504;2022-12-17T01:25:19;15.38;;;7.85;;
44512;SDS011;30219;50.588;9.504;2022-12-17T01:28:04;14.70;;;7.30;;
44512;SDS011;30219;50.588;9.504;2022-12-17T01:30:48;15.23;;;7.68;;
44512;SDS011;30219;50.588;9.504;2022-12-17T01:33:32;14.20;;;7.05;;
44512;SDS011;30219;50.588;9.504;2022-12-17T01:36:16;16.02;;;8.02;;
44512;SDS011;30219;50.588;9.504;2022-12-17T01:39:00;15.13;;;7.88;;
44512;SDS011;30219;50.588;9.504;2022-12-17T01:41:44;13.80;;;7.05;;
44512;SDS011;30219;50.588;9.504;2022-12-17T01:47:25;14.48;;;8.00;;
44512;SDS011;30219;50.588;9.504;2022-12-17T01:50:12;16.00;;;7.63;;
44512;SDS011;30219;50.588;9.504;2022-12-17T01:52:59;15.05;;;8.00;;
44512;SDS011;30219;50.588;9.504;2022-12-17T01:55:44;18.33;;;8.70;;
44512;SDS011;30219;50.588;9.504;2022-12-17T01:58:29;21.13;;;10.63;;
44512;SDS011;30219;50.588;9.504;2022-12-17T02:01:14;18.65;;;9.27;;
44512;SDS011;30219;50.588;9.504;2022-12-17T02:03:58;19.85;;;9.20;;
44512;SDS011;30219;50.588;9.504;2022-12-17T02:06:44;16.38;;;8.35;;
44512;SDS011;30219;50.588;9.504;2022-12-17T02:09:45;22.35;;;9.18;;
44512;SDS011;30219;50.588;9.504;2022-12-17T02:12:46;19.13;;;9.98;;
44512;SDS011;30219;50.588;9.504;2022-12-17T02:15:46;14.80;;;8.27;;
44512;SDS011;30219;50.588;9.504;2022-12-17T02:18:36;17.00;;;8.43;;
44512;SDS011;30219;50.588;9.504;2022-12-17T02:21:33;15.15;;;8.40;;
44512;SDS011;30219;50.588;9.504;2022-12-17T02:24:54;18.55;;;8.77;;
44512;SDS011;30219;50.588;9.504;2022-12-17T02:27:35;15.73;;;8.45;;
44512;SDS011;30219;50.588;9.504;2022-12-17T02:30:20;15.32;;;7.28;;
44512;SDS011;30219;50.588;9.504;2022-12-17T02:33:04;15.18;;;7.30;;
44512;SDS011;30219;50.588;9.504;2022-12-17T02:35:53;15.23;;;7.82;;
44512;SDS011;30219;50.588;9.504;2022-12-17T02:38:42;18.27;;;7.03;;
44512;SDS011;30219;50.588;9.504;2022-12-17T02:41:27;21.35;;;8.93;;
44512;SDS011;30219;50.588;9.504;2022-12-17T02:44:14;17.33;;;8.00;;
44512;SDS011;30219;50.588;9.504;2022-12-17T02:47:01;21.35;;;7.75;;
44512;SDS011;30219;50.588;9.504;2022-12-17T02:49:48;14.15;;;7.65;;
44512;SDS011;30219;50.588;9.504;2022-12-17T02:52:32;17.30;;;8.15;;
44512;SDS011;30219;50.588;9.504;2022-12-17T02:55:19;18.35;;;9.30;;
44512;SDS011;30219;50.588;9.504;2022-12-17T02:58:03;16.15;;;8.27;;
44512;SDS011;30219;50.588;9.504;2022-12-17T03:00:47;16.33;;;8.60;;
44512;SDS011;30219;50.588;9.504;2022-12-17T03:03:31;22.83;;;9.35;;
44512;SDS011;30219;50.588;9.504;2022-12-17T03:06:15;18.75;;;9.23;;
44512;SDS011;30219;50.588;9.504;2022-12-17T03:08:59;17.92;;;8.63;;
44512;SDS011;30219;50.588;9.504;2022-12-17T03:11:43;14.45;;;8.40;;
44512;SDS011;30219;50.588;9.504;2022-12-17T03:14:27;20.77;;;8.80;;
44512;SDS011;30219;50.588;9.504;2022-12-17T03:17:11;19.63;;;9.55;;
44512;SDS011;30219;50.588;9.504;2022-12-17T03:19:55;18.88;;;9.25;;
44512;SDS011;30219;50.588;9.504;2022-12-17T03:22:39;22.17;;;9.60;;
44512;SDS011;30219;50.588;9.504;2022-12-17T03:25:23;16.92;;;9.18;;
44512;SDS011;30219;50.588;9.504;2022-12-17T03:28:09;20.45;;;10.35;;
44512;SDS011;30219;50.588;9.504;2022-12-17T03:30:57;15.43;;;9.52;;
44512;SDS011;30219;50.588;9.504;2022-12-17T03:33:42;17.92;;;9.35;;
44512;SDS011;30219;50.588;9.504;2022-12-17T03:36:27;18.15;;;9.20;;
44512;SDS011;30219;50.588;9.504;2022-12-17T03:39:12;18.73;;;9.88;;
44512;SDS011;30219;50.588;9.504;2022-12-17T03:41:56;18.20;;;10.73;;
44512;SDS011;30219;50.588;9.504;2022-12-17T03:44:40;25.40;;;10.88;;
44512;SDS011;30219;50.588;9.504;2022-12-17T03:47:24;20.00;;;10.73;;
44512;SDS011;30219;50.588;9.504;2022-12-17T03:50:08;19.50;;;9.73;;
44512;SDS011;30219;50.588;9.504;2022-12-17T03:52:53;22.30;;;10.75;;
44512;SDS011;30219;50.588;9.504;2022-12-17T03:55:37;20.98;;;11.82;;
44512;SDS011;30219;50.588;9.504;2022-12-17T03:58:21;28.30;;;12.27;;
44512;SDS011;30219;50.588;9.504;2022-12-17T04:01:05;21.75;;;11.00;;
44512;SDS011;30219;50.588;9.504;2022-12-17T04:03:49;21.45;;;12.13;;
44512;SDS011;30219;50.588;9.504;2022-12-17T04:06:33;23.08;;;11.73;;
44512;SDS011;30219;50.588;9.504;2022-12-17T04:09:17;22.73;;;12.38;;
44512;SDS011;30219;50.588;9.504;2022-12-17T04:12:01;25.83;;;13.13;;
44512;SDS011;30219;50.588;9.504;2022-12-17T04:14:46;20.45;;;11.40;;
44512;SDS011;30219;50.588;9.504;2022-12-17T04:17:30;19.40;;;11.43;;
44512;SDS011;30219;50.588;9.504;2022-12-17T04:20:14;23.40;;;12.13;;
44512;SDS011;30219;50.588;9.504;2022-12-17T04:22:58;25.73;;;12.38;;
44512;SDS011;30219;50.588;9.504;2022-12-17T04:25:42;24.20;;;12.30;;
44512;SDS011;30219;50.588;9.504;2022-12-17T04:28:26;27.02;;;11.93;;
44512;SDS011;30219;50.588;9.504;2022-12-17T04:31:10;21.00;;;11.60;;
44512;SDS011;30219;50.588;9.504;2022-12-17T04:33:54;24.05;;;12.52;;
44512;SDS011;30219;50.588;9.504;2022-12-17T04:36:39;32.10;;;14.55;;
44512;SDS011;30219;50.588;9.504;2022-12-17T04:39:23;30.35;;;13.25;;
44512;SDS011;30219;50.588;9.504;2022-12-17T04:42:07;23.00;;;12.60;;
44512;SDS011;30219;50.588;9.504;2022-12-17T04:44:51;22.98;;;12.55;;
44512;SDS011;30219;50.588;9.504;2022-12-17T04:47:35;27.50;;;11.70;;
44512;SDS011;30219;50.588;9.504;2022-12-17T04:50:19;26.00;;;13.15;;
44512;SDS011;30219;50.588;9.504;2022-12-17T04:53:04;28.23;;;13.25;;
44512;SDS011;30219;50.588;9.504;2022-12-17T04:55:49;21.58;;;12.38;;
44512;SDS011;30219;50.588;9.504;2022-12-17T04:58:34;26.17;;;12.23;;
44512;SDS011;30219;50.588;9.504;2022-12-17T05:01:17;23.55;;;13.23;;
44512;SDS011;30219;50.588;9.504;2022-12-17T05:04:02;25.98;;;12.88;;
44512;SDS011;30219;50.588;9.504;2022-12-17T05:06:46;27.40;;;13.63;;
44512;SDS011;30219;50.588;9.504;2022-12-17T05:09:30;26.60;;;12.77;;
44512;SDS011;30219;50.588;9.504;2022-12-17T05:12:14;24.48;;;13.85;;
44512;SDS011;30219;50.588;9.504;2022-12-17T05:14:58;24.67;;;13.20;;
44512;SDS011;30219;50.588;9.504;2022-12-17T05:17:42;25.38;;;11.98;;
44512;SDS011;30219;50.588;9.504;2022-12-17T05:20:26;23.15;;;12.63;;
44512;SDS011;30219;50.588;9.504;2022-12-17T05:23:24;26.40;;;12.88;;
44512;SDS011;30219;50.588;9.504;2022-12-17T05:26:19;29.30;;;13.13;;
44512;SDS011;30219;50.588;9.504;2022-12-17T05:29:05;35.90;;;15.68;;
44512;SDS011;30219;50.588;9.504;2022-12-17T05:31:50;30.15;;;14.35;;
44512;SDS011;30219;50.588;9.504;2022-12-17T05:34:34;33.28;;;16.70;;
44512;SDS011;30219;50.588;9.504;2022-12-17T05:37:18;39.67;;;16.92;;
44512;SDS011;30219;50.588;9.504;2022-12-17T05:40:03;40.03;;;17.92;;
44512;SDS011;30219;50.588;9.504;2022-12-17T05:42:54;32.20;;;15.43;;
44512;SDS011;30219;50.588;9.504;2022-12-17T05:45:40;28.13;;;12.83;;
44512;SDS011;30219;50.588;9.504;2022-12-17T05:48:24;36.53;;;16.63;;
44512;SDS011;30219;50.588;9.504;2022-12-17T05:51:08;35.13;;;16.95;;
44512;SDS011;30219;50.588;9.504;2022-12-17T05:53:52;34.08;;;16.05;;
44512;SDS011;30219;50.588;9.504;2022-12-17T05:56:36;35.55;;;16.05;;
44512;SDS011;30219;50.588;9.504;2022-12-17T05:59:20;36.60;;;15.98;;
44512;SDS011;30219;50.588;9.504;2022-12-17T06:02:04;37.28;;;15.93;;
44512;SDS011;30219;50.588;9.504;2022-12-17T06:04:48;32.42;;;15.70;;
44512;SDS011;30219;50.588;9.504;2022-12-17T06:07:32;35.92;;;16.17;;
44512;SDS011;30219;50.588;9.504;2022-12-17T06:10:16;39.28;;;15.65;;
44512;SDS011;30219;50.588;9.504;2022-12-17T06:13:00;31.67;;;15.98;;
44512;SDS011;30219;50.588;9.504;2022-12-17T06:15:48;32.75;;;15.27;;
44512;SDS011;30219;50.588;9.504;2022-12-17T06:18:33;33.00;;;15.52;;
44512;SDS011;30219;50.588;9.504;2022-12-17T06:21:18;28.40;;;15.18;;
44512;SDS011;30219;50.588;9.504;2022-12-17T06:24:03;32.30;;;14.63;;
44512;SDS011;30219;50.588;9.504;2022-12-17T06:26:47;32.35;;;16.05;;
44512;SDS011;30219;50.588;9.504;2022-12-17T06:29:31;37.03;;;15.77;;
44512;SDS011;30219;50.588;9.504;2022-12-17T06:32:15;31.90;;;16.23;;
44512;SDS011;30219;50.588;9.504;2022-12-17T06:34:59;34.15;;;16.40;;
44512;SDS011;30219;50.588;9.504;2022-12-17T06:37:43;36.80;;;17.35;;
44512;SDS011;30219;50.588;9.504;2022-12-17T06:40:27;31.08;;;16.23;;
44512;SDS011;30219;50.588;9.504;2022-12-17T06:43:11;37.47;;;19.02;;
44512;SDS011;30219;50.588;9.504;2022-12-17T06:45:56;41.47;;;19.27;;
44512;SDS011;30219;50.588;9.504;2022-12-17T06:48:40;40.70;;;18.58;;
44512;SDS011;30219;50.588;9.504;2022-12-17T06:51:24;44.47;;;18.02;;
44512;SDS011;30219;50.588;9.504;2022-12-17T06:54:08;55.60;;;20.27;;
44512;SDS011;30219;50.588;9.504;2022-12-17T06:56:52;43.72;;;19.85;;
44512;SDS011;30219;50.588;9.504;2022-12-17T06:59:36;55.35;;;22.60;;
44512;SDS011;30219;50.588;9.504;2022-12-17T07:02:23;54.78;;;19.38;;
44512;SDS011;30219;50.588;9.504;2022-12-17T07:05:07;57.20;;;22.30;;
44512;SDS011;30219;50.588;9.504;2022-12-17T07:08:00;53.30;;;20.85;;
44512;SDS011;30219;50.588;9.504;2022-12-17T07:13:28;47.55;;;19.38;;
44512;SDS011;30219;50.588;9.504;2022-12-17T07:16:12;41.47;;;18.75;;
44512;SDS011;30219;50.588;9.504;2022-12-17T07:18:57;62.80;;;19.80;;
44512;SDS011;30219;50.588;9.504;2022-12-17T07:21:41;52.53;;;21.35;;
44512;SDS011;30219;50.588;9.504;2022-12-17T07:24:25;53.45;;;22.05;;
44512;SDS011;30219;50.588;9.504;2022-12-17T07:27:09;47.88;;;21.10;;
44512;SDS011;30219;50.588;9.504;2022-12-17T07:29:54;49.85;;;20.13;;
44512;SDS011;30219;50.588;9.504;2022-12-17T07:32:38;48.53;;;20.80;;
44512;SDS011;30219;50.588;9.504;2022-12-17T07:35:22;49.95;;;19.75;;
44512;SDS011;30219;50.588;9.504;2022-12-17T07:38:07;44.50;;;19.40;;
44512;SDS011;30219;50.588;9.504;2022-12-17T07:40:53;69.38;;;20.77;;
44512;SDS011;30219;50.588;9.504;2022-12-17T07:43:37;67.70;;;21.45;;
44512;SDS011;30219;50.588;9.504;2022-12-17T07:46:21;54.47;;;21.35;;
44512;SDS011;30219;50.588;9.504;2022-12-17T07:49:06;60.70;;;21.85;;
44512;SDS011;30219;50.588;9.504;2022-12-17T07:51:50;61.10;;;22.95;;
44512;SDS011;30219;50.588;9.504;2022-12-17T07:54:34;69.47;;;22.35;;
44512;SDS011;30219;50.588;9.504;2022-12-17T07:57:18;62.15;;;23.85;;
44512;SDS011;30219;50.588;9.504;2022-12-17T08:00:02;66.85;;;23.40;;
44512;SDS011;30219;50.588;9.504;2022-12-17T08:02:47;68.55;;;25.60;;
44512;SDS011;30219;50.588;9.504;2022-12-17T08:05:31;67.72;;;25.35;;
44512;SDS011;30219;50.588;9.504;2022-12-17T08:08:15;58.25;;;21.42;;
44512;SDS011;30219;50.588;9.504;2022-12-17T08:11:00;60.67;;;21.60;;
44512;SDS011;30219;50.588;9.504;2022-12-17T08:13:44;49.53;;;20.58;;
44512;SDS011;30219;50.588;9.504;2022-12-17T08:16:28;51.00;;;21.52;;
44512;SDS011;30219;50.588;9.504;2022-12-17T08:19:12;58.10;;;21.83;;
44512;SDS011;30219;50.588;9.504;2022-12-17T08:21:57;58.05;;;23.10;;
44512;SDS011;30219;50.588;9.504;2022-12-17T08:24:41;57.20;;;23.63;;
44512;SDS011;30219;50.588;9.504;2022-12-17T08:27:25;66.72;;;23.90;;
44512;SDS011;30219;50.588;9.504;2022-12-17T08:30:09;61.47;;;22.38;;
44512;SDS011;30219;50.588;9.504;2022-12-17T08:32:53;67.75;;;24.73;;
44512;SDS011;30219;50.588;9.504;2022-12-17T08:35:37;64.57;;;23.23;;
44512;SDS011;30219;50.588;9.504;2022-12-17T08:38:21;63.30;;;22.48;;
44512;SDS011;30219;50.588;9.504;2022-12-17T08:41:05;100.18;;;37.85;;
44512;SDS011;30219;50.588;9.504;2022-12-17T08:43:50;86.90;;;31.73;;
44512;SDS011;30219;50.588;9.504;2022-12-17T08:46:34;69.28;;;24.73;;
44512;SDS011;30219;50.588;9.504;2022-12-17T08:49:18;62.05;;;23.02;;
44512;SDS011;30219;50.588;9.504;2022-12-17T08:52:02;55.30;;;21.55;;
44512;SDS011;30219;50.588;9.504;2022-12-17T08:54:46;54.65;;;21.98;;
44512;SDS011;30219;50.588;9.504;2022-12-17T08:57:30;49.42;;;20.90;;
44512;SDS011;30219;50.588;9.504;2022-12-17T09:00:14;53.60;;;21.02;;
44512;SDS011;30219;50.588;9.504;2022-12-17T09:02:59;60.22;;;24.35;;
44512;SDS011;30219;50.588;9.504;2022-12-17T09:05:44;63.22;;;22.95;;
44512;SDS011;30219;50.588;9.504;2022-12-17T09:08:29;60.55;;;22.85;;
44512;SDS011;30219;50.588;9.504;2022-12-17T09:11:13;63.83;;;24.27;;
44512;SDS011;30219;50.588;9.504;2022-12-17T09:13:57;70.03;;;24.27;;
44512;SDS011;30219;50.588;9.504;2022-12-17T09:16:41;70.45;;;24.75;;
44512;SDS011;30219;50.588;9.504;2022-12-17T09:19:25;64.95;;;25.00;;
44512;SDS011;30219;50.588;9.504;2022-12-17T09:22:09;81.63;;;27.48;;
44512;SDS011;30219;50.588;9.504;2022-12-17T09:24:53;75.10;;;28.10;;
44512;SDS011;30219;50.588;9.504;2022-12-17T09:27:38;89.82;;;28.10;;
44512;SDS011;30219;50.588;9.504;2022-12-17T09:30:22;76.70;;;27.23;;
44512;SDS011;30219;50.588;9.504;2022-12-17T09:33:06;76.38;;;24.63;;
44512;SDS011;30219;50.588;9.504;2022-12-17T09:35:50;85.75;;;24.40;;
44512;SDS011;30219;50.588;9.504;2022-12-17T09:38:34;101.43;;;25.42;;
44512;SDS011;30219;50.588;9.504;2022-12-17T09:41:24;113.32;;;26.73;;
44512;SDS011;30219;50.588;9.504;2022-12-17T09:50:07;79.07;;;23.85;;
44512;SDS011;30219;50.588;9.504;2022-12-17T09:52:57;80.10;;;23.30;;
44512;SDS011;30219;50.588;9.504;2022-12-17T09:55:46;52.63;;;20.50;;
44512;SDS011;30219;50.588;9.504;2022-12-17T09:58:33;65.85;;;23.05;;
44512;SDS011;30219;50.588;9.504;2022-12-17T10:01:20;57.83;;;20.58;;
44512;SDS011;30219;50.588;9.504;2022-12-17T10:04:10;66.05;;;23.08;;
44512;SDS011;30219;50.588;9.504;2022-12-17T10:06:58;53.63;;;21.15;;
44512;SDS011;30219;50.588;9.504;2022-12-17T10:09:43;104.05;;;22.60;;
44512;SDS011;30219;50.588;9.504;2022-12-17T10:12:31;52.53;;;20.45;;
44512;SDS011;30219;50.588;9.504;2022-12-17T10:15:16;63.97;;;23.30;;
44512;SDS011;30219;50.588;9.504;2022-12-17T10:18:03;55.70;;;21.27;;
44512;SDS011;30219;50.588;9.504;2022-12-17T10:21:03;47.00;;;21.25;;
44512;SDS011;30219;50.588;9.504;2022-12-17T10:24:03;61.53;;;21.80;;
44512;SDS011;30219;50.588;9.504;2022-12-17T10:26:51;52.67;;;21.33;;
44512;SDS011;30219;50.588;9.504;2022-12-17T10:29:35;55.83;;;21.38;;
44512;SDS011;30219;50.588;9.504;2022-12-17T10:32:23;55.65;;;20.92;;
44512;SDS011;30219;50.588;9.504;2022-12-17T10:41:19;54.53;;;24.60;;
44512;SDS011;30219;50.588;9.504;2022-12-17T10:44:18;49.80;;;22.45;;
44512;SDS011;30219;50.588;9.504;2022-12-17T10:47:14;52.92;;;21.67;;
44512;SDS011;30219;50.588;9.504;2022-12-17T10:50:00;66.80;;;22.80;;
44512;SDS011;30219;50.588;9.504;2022-12-17T10:52:46;62.42;;;22.67;;
44512;SDS011;30219;50.588;9.504;2022-12-17T10:55:32;67.28;;;24.15;;
44512;SDS011;30219;50.588;9.504;2022-12-17T10:58:18;60.67;;;22.45;;
44512;SDS011;30219;50.588;9.504;2022-12-17T11:01:05;56.55;;;22.75;;
44512;SDS011;30219;50.588;9.504;2022-12-17T11:03:53;54.08;;;22.73;;
44512;SDS011;30219;50.588;9.504;2022-12-17T11:06:40;51.65;;;20.40;;
44512;SDS011;30219;50.588;9.504;2022-12-17T11:09:44;52.93;;;19.63;;
44512;SDS011;30219;50.588;9.504;2022-12-17T11:12:49;47.53;;;20.15;;
44512;SDS011;30219;50.588;9.504;2022-12-17T11:15:39;59.60;;;22.80;;
44512;SDS011;30219;50.588;9.504;2022-12-17T11:21:53;63.08;;;23.15;;
44512;SDS011;30219;50.588;9.504;2022-12-17T11:24:45;61.20;;;22.52;;
44512;SDS011;30219;50.588;9.504;2022-12-17T11:28:04;70.43;;;23.90;;
44512;SDS011;30219;50.588;9.504;2022-12-17T11:34:05;65.25;;;23.27;;
44512;SDS011;30219;50.588;9.504;2022-12-17T11:37:19;59.30;;;22.60;;
44512;SDS011;30219;50.588;9.504;2022-12-17T11:40:16;69.35;;;24.02;;
44512;SDS011;30219;50.588;9.504;2022-12-17T11:49:38;68.05;;;22.52;;
44512;SDS011;30219;50.588;9.504;2022-12-17T11:55:45;51.83;;;21.08;;
44512;SDS011;30219;50.588;9.504;2022-12-17T11:58:41;50.13;;;19.95;;
44512;SDS011;30219;50.588;9.504;2022-12-17T12:04:57;55.97;;;22.42;;
44512;SDS011;30219;50.588;9.504;2022-12-17T12:07:55;46.75;;;20.63;;
44512;SDS011;30219;50.588;9.504;2022-12-17T12:10:46;47.60;;;20.42;;
44512;SDS011;30219;50.588;9.504;2022-12-17T12:14:00;53.08;;;21.20;;
44512;SDS011;30219;50.588;9.504;2022-12-17T12:17:03;45.45;;;19.92;;
44512;SDS011;30219;50.588;9.504;2022-12-17T12:22:54;51.17;;;21.45;;
44512;SDS011;30219;50.588;9.504;2022-12-17T12:28:57;46.03;;;20.23;;
44512;SDS011;30219;50.588;9.504;2022-12-17T12:34:35;37.97;;;15.57;;
44512;SDS011;30219;50.588;9.504;2022-12-17T12:37:21;47.50;;;21.05;;
44512;SDS011;30219;50.588;9.504;2022-12-17T12:42:38;45.97;;;19.23;;
44512;SDS011;30219;50.588;9.504;2022-12-17T12:45:44;45.55;;;19.48;;
44512;SDS011;30219;50.588;9.504;2022-12-17T12:48:47;46.88;;;20.15;;
44512;SDS011;30219;50.588;9.504;2022-12-17T12:51:46;47.05;;;20.48;;
44512;SDS011;30219;50.588;9.504;2022-12-17T12:57:30;45.53;;;19.38;;
44512;SDS011;30219;50.588;9.504;2022-12-17T13:00:20;47.80;;;19.73;;
44512;SDS011;30219;50.588;9.504;2022-12-17T13:06:11;44.05;;;18.52;;
44512;SDS011;30219;50.588;9.504;2022-12-17T13:08:38;45.35;;;18.52;;
44512;SDS011;30219;50.588;9.504;2022-12-17T13:11:26;47.40;;;19.75;;
44512;SDS011;30219;50.588;9.504;2022-12-17T13:13:54;51.53;;;19.40;;
44512;SDS011;30219;50.588;9.504;2022-12-17T13:16:48;42.55;;;18.73;;
44512;SDS011;30219;50.588;9.504;2022-12-17T13:19:31;31.00;;;15.02;;
44512;SDS011;30219;50.588;9.504;2022-12-17T13:24:38;39.90;;;17.95;;
44512;SDS011;30219;50.588;9.504;2022-12-17T13:27:25;43.00;;;18.88;;
44512;SDS011;30219;50.588;9.504;2022-12-17T13:32:53;43.80;;;18.48;;
44512;SDS011;30219;50.588;9.504;2022-12-17T13:41:10;37.33;;;16.55;;
44512;SDS011;30219;50.588;9.504;2022-12-17T13:43:48;42.15;;;16.55;;
44512;SDS011;30219;50.588;9.504;2022-12-17T13:51:28;39.67;;;17.48;;
44512;SDS011;30219;50.588;9.504;2022-12-17T13:53:56;38.08;;;16.20;;
44512;SDS011;30219;50.588;9.504;2022-12-17T13:56:32;36.28;;;17.08;;
44512;SDS011;30219;50.588;9.504;2022-12-17T13:59:00;39.67;;;18.38;;
44512;SDS011;30219;50.588;9.504;2022-12-17T14:01:28;35.63;;;15.43;;
44512;SDS011;30219;50.588;9.504;2022-12-17T14:03:57;36.97;;;16.52;;
44512;SDS011;30219;50.588;9.504;2022-12-17T14:06:25;34.58;;;15.50;;
44512;SDS011;30219;50.588;9.504;2022-12-17T14:09:02;35.22;;;15.77;;
44512;SDS011;30219;50.588;9.504;2022-12-17T14:11:29;37.33;;;16.35;;
44512;SDS011;30219;50.588;9.504;2022-12-17T14:16:51;36.63;;;16.27;;
44512;SDS011;30219;50.588;9.504;2022-12-17T14:19:17;40.97;;;16.83;;
44512;SDS011;30219;50.588;9.504;2022-12-17T14:21:45;41.40;;;17.58;;
44512;SDS011;30219;50.588;9.504;2022-12-17T14:24:12;39.47;;;17.50;;
44512;SDS011;30219;50.588;9.504;2022-12-17T14:26:51;42.13;;;18.60;;
44512;SDS011;30219;50.588;9.504;2022-12-17T14:29:26;45.20;;;17.98;;
44512;SDS011;30219;50.588;9.504;2022-12-17T14:31:59;41.30;;;17.55;;
44512;SDS011;30219;50.588;9.504;2022-12-17T14:34:27;32.90;;;14.52;;
44512;SDS011;30219;50.588;9.504;2022-12-17T14:37:03;34.50;;;15.43;;
44512;SDS011;30219;50.588;9.504;2022-12-17T14:39:30;38.97;;;16.65;;
44512;SDS011;30219;50.588;9.504;2022-12-17T14:41:57;38.08;;;16.38;;
44512;SDS011;30219;50.588;9.504;2022-12-17T14:44:59;40.00;;;16.85;;
44512;SDS011;30219;50.588;9.504;2022-12-17T14:47:33;34.10;;;16.27;;
44512;SDS011;30219;50.588;9.504;2022-12-17T14:50:04;29.40;;;13.00;;
44512;SDS011;30219;50.588;9.504;2022-12-17T14:52:36;35.42;;;14.98;;
44512;SDS011;30219;50.588;9.504;2022-12-17T14:55:26;34.78;;;15.98;;
44512;SDS011;30219;50.588;9.504;2022-12-17T14:57:53;30.42;;;14.07;;
44512;SDS011;30219;50.588;9.504;2022-12-17T15:00:36;37.10;;;14.13;;
44512;SDS011;30219;50.588;9.504;2022-12-17T15:03:08;38.30;;;12.90;;
44512;SDS011;30219;50.588;9.504;2022-12-17T15:05:38;31.17;;;13.23;;
44512;SDS011;30219;50.588;9.504;2022-12-17T15:08:04;35.92;;;15.10;;
44512;SDS011;30219;50.588;9.504;2022-12-17T15:10:29;32.60;;;14.27;;
44512;SDS011;30219;50.588;9.504;2022-12-17T15:12:55;29.92;;;12.13;;
44512;SDS011;30219;50.588;9.504;2022-12-17T15:15:21;32.50;;;14.07;;
44512;SDS011;30219;50.588;9.504;2022-12-17T15:17:47;33.70;;;12.98;;
44512;SDS011;30219;50.588;9.504;2022-12-17T15:20:17;29.00;;;11.65;;
44512;SDS011;30219;50.588;9.504;2022-12-17T15:22:44;33.13;;;13.63;;
44512;SDS011;30219;50.588;9.504;2022-12-17T15:25:11;30.63;;;13.55;;
44512;SDS011;30219;50.588;9.504;2022-12-17T15:27:38;29.33;;;13.88;;
44512;SDS011;30219;50.588;9.504;2022-12-17T15:30:04;30.52;;;12.90;;
44512;SDS011;30219;50.588;9.504;2022-12-17T15:32:30;31.40;;;14.75;;
44512;SDS011;30219;50.588;9.504;2022-12-17T15:34:56;33.08;;;14.00;;
44512;SDS011;30219;50.588;9.504;2022-12-17T15:37:21;30.58;;;13.93;;
44512;SDS011;30219;50.588;9.504;2022-12-17T15:39:49;31.48;;;14.18;;
44512;SDS011;30219;50.588;9.504;2022-12-17T15:42:15;29.35;;;13.20;;
44512;SDS011;30219;50.588;9.504;2022-12-17T15:44:59;25.83;;;12.90;;
44512;SDS011;30219;50.588;9.504;2022-12-17T15:47:24;27.48;;;12.52;;
44512;SDS011;30219;50.588;9.504;2022-12-17T15:49:50;26.65;;;12.02;;
44512;SDS011;30219;50.588;9.504;2022-12-17T15:52:15;27.50;;;13.65;;
44512;SDS011;30219;50.588;9.504;2022-12-17T15:54:41;32.92;;;14.13;;
44512;SDS011;30219;50.588;9.504;2022-12-17T15:57:07;31.63;;;14.48;;
44512;SDS011;30219;50.588;9.504;2022-12-17T15:59:32;37.03;;;14.90;;
44512;SDS011;30219;50.588;9.504;2022-12-17T16:01:58;37.33;;;16.20;;
44512;SDS011;30219;50.588;9.504;2022-12-17T16:04:24;43.15;;;17.83;;
44512;SDS011;30219;50.588;9.504;2022-12-17T16:06:49;37.00;;;15.10;;
44512;SDS011;30219;50.588;9.504;2022-12-17T16:09:15;44.25;;;17.88;;
44512;SDS011;30219;50.588;9.504;2022-12-17T16:11:41;39.72;;;18.52;;
44512;SDS011;30219;50.588;9.504;2022-12-17T16:14:07;54.78;;;20.65;;
44512;SDS011;30219;50.588;9.504;2022-12-17T16:16:32;53.47;;;22.38;;
44512;SDS011;30219;50.588;9.504;2022-12-17T16:18:58;53.30;;;21.83;;
44512;SDS011;30219;50.588;9.504;2022-12-17T16:21:25;52.17;;;19.73;;
44512;SDS011;30219;50.588;9.504;2022-12-17T16:23:51;41.75;;;17.85;;
44512;SDS011;30219;50.588;9.504;2022-12-17T16:26:17;44.45;;;18.60;;
44512;SDS011;30219;50.588;9.504;2022-12-17T16:28:43;44.17;;;17.73;;
44512;SDS011;30219;50.588;9.504;2022-12-17T16:31:10;38.75;;;16.52;;
44512;SDS011;30219;50.588;9.504;2022-12-17T16:33:37;39.00;;;17.55;;
44512;SDS011;30219;50.588;9.504;2022-12-17T16:36:04;35.58;;;14.75;;
44512;SDS011;30219;50.588;9.504;2022-12-17T16:38:31;24.55;;;11.43;;
44512;SDS011;30219;50.588;9.504;2022-12-17T16:40:58;24.90;;;10.50;;
44512;SDS011;30219;50.588;9.504;2022-12-17T16:43:26;37.17;;;12.15;;
44512;SDS011;30219;50.588;9.504;2022-12-17T16:45:53;27.95;;;11.73;;
44512;SDS011;30219;50.588;9.504;2022-12-17T16:48:19;25.33;;;11.70;;
44512;SDS011;30219;50.588;9.504;2022-12-17T16:50:46;26.15;;;11.57;;
44512;SDS011;30219;50.588;9.504;2022-12-17T16:53:12;26.85;;;11.27;;
44512;SDS011;30219;50.588;9.504;2022-12-17T16:55:39;29.08;;;12.27;;
44512;SDS011;30219;50.588;9.504;2022-12-17T16:58:06;29.23;;;13.55;;
44512;SDS011;30219;50.588;9.504;2022-12-17T17:00:32;27.13;;;10.20;;
44512;SDS011;30219;50.588;9.504;2022-12-17T17:02:58;36.67;;;11.00;;
44512;SDS011;30219;50.588;9.504;2022-12-17T17:05:24;23.08;;;9.57;;